createdAt,value
2023-12-30T00:01:41.721Z,9.52
2023-12-30T00:03:43.237Z,9.23
2023-12-30T00:05:44.736Z,12.43
2023-12-30T00:07:46.623Z,7.85
2023-12-30T00:09:48.148Z,11.82
2023-12-30T00:11:49.626Z,13.23
2023-12-30T00:13:51.173Z,10.73
2023-12-30T00:15:53.000Z,9.75
2023-12-30T00:17:54.589Z,10.43
2023-12-30T00:19:57.807Z,8.77
2023-12-30T00:21:59.467Z,55.08
2023-12-30T00:24:01.181Z,59.17
2023-12-30T00:26:02.883Z,37.80
2023-12-30T00:28:04.509Z,39.03
2023-12-30T00:30:06.680Z,17.13
2023-12-30T00:32:08.577Z,25.08
2023-12-30T00:34:10.180Z,14.40
2023-12-30T00:36:11.843Z,20.25
2023-12-30T00:38:15.170Z,11.82
2023-12-30T00:40:25.828Z,14.90
2023-12-30T00:42:28.519Z,19.73
2023-12-30T00:44:30.217Z,13.40
2023-12-30T00:46:31.740Z,16.73
2023-12-30T00:48:33.253Z,12.57
2023-12-30T00:50:34.927Z,17.45
2023-12-30T00:52:36.402Z,16.95
2023-12-30T00:54:41.315Z,12.63
2023-12-30T00:56:49.636Z,12.02
2023-12-30T00:58:51.077Z,12.25
2023-12-30T01:00:53.185Z,10.43
2023-12-30T01:02:54.861Z,10.65
2023-12-30T01:04:56.465Z,11.68
2023-12-30T01:06:58.068Z,10.40
2023-12-30T01:08:59.757Z,11.73
2023-12-30T01:11:01.209Z,9.77
2023-12-30T01:13:02.993Z,14.75
2023-12-30T01:15:05.225Z,11.95
2023-12-30T01:17:06.712Z,9.55
2023-12-30T01:19:08.215Z,10.43
2023-12-30T01:21:09.922Z,8.95
2023-12-30T01:23:11.394Z,8.48
2023-12-30T01:25:12.984Z,7.47
2023-12-30T01:27:15.065Z,8.52
2023-12-30T01:29:16.511Z,9.10
2023-12-30T01:31:18.149Z,10.75
2023-12-30T01:33:20.010Z,9.77
2023-12-30T01:35:21.489Z,9.02
2023-12-30T01:37:23.017Z,88.05
2023-12-30T01:39:24.732Z,47.55
2023-12-30T01:41:26.169Z,12.50
2023-12-30T01:43:30.482Z,15.15
2023-12-30T01:45:32.130Z,7.00
2023-12-30T01:47:35.084Z,11.70
2023-12-30T01:49:36.936Z,7.03
2023-12-30T01:51:38.583Z,8.80
2023-12-30T01:53:43.063Z,8.50
2023-12-30T01:55:46.155Z,8.25
2023-12-30T01:57:47.909Z,6.03
2023-12-30T01:59:49.908Z,7.20
2023-12-30T02:01:51.602Z,13.43
2023-12-30T02:03:54.020Z,8.40
2023-12-30T02:05:55.878Z,7.07
2023-12-30T02:07:57.576Z,7.03
2023-12-30T02:09:59.146Z,8.00
2023-12-30T02:12:00.837Z,7.72
2023-12-30T02:14:02.385Z,8.07
2023-12-30T02:16:03.937Z,6.05
2023-12-30T02:18:05.756Z,7.43
2023-12-30T02:20:07.884Z,6.03
2023-12-30T02:22:09.510Z,5.47
2023-12-30T02:24:10.968Z,5.95
2023-12-30T02:26:12.414Z,7.93
2023-12-30T02:28:14.112Z,6.72
2023-12-30T02:30:16.176Z,7.65
2023-12-30T02:32:17.726Z,6.20
2023-12-30T02:34:20.184Z,5.57
2023-12-30T02:36:21.771Z,5.63
2023-12-30T02:38:23.217Z,4.50
2023-12-30T02:40:24.797Z,5.22
2023-12-30T02:42:26.294Z,8.10
2023-12-30T02:44:27.752Z,5.10
2023-12-30T02:46:29.707Z,5.78
2023-12-30T02:48:31.243Z,5.80
2023-12-30T02:50:32.922Z,5.55
2023-12-30T02:52:34.631Z,5.80
2023-12-30T02:56:37.754Z,5.38
2023-12-30T02:58:39.385Z,4.97
2023-12-30T03:00:40.890Z,6.05
2023-12-30T03:02:42.766Z,6.00
2023-12-30T03:04:44.587Z,6.82
2023-12-30T03:06:46.126Z,6.63
2023-12-30T03:08:47.823Z,5.72
2023-12-30T03:10:49.592Z,5.72
2023-12-30T03:12:51.085Z,5.15
2023-12-30T03:14:52.586Z,21.25
2023-12-30T03:16:54.226Z,12.85
2023-12-30T03:18:55.770Z,9.60
2023-12-30T03:20:57.703Z,5.25
2023-12-30T03:22:59.556Z,4.68
2023-12-30T03:25:01.279Z,5.55
2023-12-30T03:27:02.870Z,4.93
2023-12-30T03:29:04.466Z,5.43
2023-12-30T03:31:08.293Z,4.93
2023-12-30T03:33:09.832Z,5.63
2023-12-30T03:35:11.636Z,6.80
2023-12-30T03:37:13.150Z,4.82
2023-12-30T03:39:14.605Z,4.97
2023-12-30T03:41:17.221Z,5.95
2023-12-30T03:43:18.740Z,5.10
2023-12-30T03:45:20.234Z,6.15
2023-12-30T03:47:21.819Z,4.97
2023-12-30T03:49:23.364Z,5.80
2023-12-30T03:51:24.922Z,6.15
2023-12-30T03:53:26.515Z,7.72
2023-12-30T03:55:28.331Z,6.80
2023-12-30T03:57:29.806Z,10.70
2023-12-30T03:59:31.478Z,6.55
2023-12-30T04:01:33.013Z,6.72
2023-12-30T04:03:34.538Z,7.32
2023-12-30T04:05:36.137Z,6.32
2023-12-30T04:07:37.704Z,5.90
2023-12-30T04:09:39.172Z,49.80
2023-12-30T04:11:40.744Z,14.88
2023-12-30T04:13:42.280Z,8.85
2023-12-30T04:15:43.748Z,5.00
2023-12-30T04:17:48.070Z,5.82
2023-12-30T04:19:49.672Z,6.13
2023-12-30T04:21:51.446Z,7.03
2023-12-30T04:23:53.101Z,6.53
2023-12-30T04:25:54.599Z,4.85
2023-12-30T04:27:56.653Z,4.15
2023-12-30T04:29:58.359Z,5.13
2023-12-30T04:31:59.878Z,4.35
2023-12-30T04:34:01.414Z,4.90
2023-12-30T04:36:03.163Z,5.47
2023-12-30T04:38:04.632Z,4.30
2023-12-30T04:40:06.731Z,4.00
2023-12-30T04:42:11.062Z,6.60
2023-12-30T04:44:12.520Z,4.00
2023-12-30T04:46:14.625Z,6.47
2023-12-30T04:48:16.426Z,4.28
2023-12-30T04:50:18.256Z,6.35
2023-12-30T04:52:19.745Z,3.65
2023-12-30T04:54:21.343Z,4.88
2023-12-30T04:56:23.287Z,6.03
2023-12-30T04:58:24.878Z,5.88
2023-12-30T05:00:26.543Z,2.88
2023-12-30T05:02:28.017Z,2.80
2023-12-30T05:04:29.638Z,2.88
2023-12-30T05:06:31.319Z,5.30
2023-12-30T05:08:33.776Z,2.55
2023-12-30T05:10:35.715Z,2.47
2023-12-30T05:12:37.404Z,5.13
2023-12-30T05:14:39.116Z,2.25
2023-12-30T05:16:47.036Z,2.67
2023-12-30T05:18:48.960Z,5.22
2023-12-30T05:20:50.521Z,3.47
2023-12-30T05:22:52.150Z,5.43
2023-12-30T05:24:53.903Z,2.63
2023-12-30T05:26:55.579Z,3.65
2023-12-30T05:28:57.091Z,1.85
2023-12-30T05:30:58.906Z,2.50
2023-12-30T05:33:00.749Z,7.80
2023-12-30T05:35:02.500Z,3.47
2023-12-30T05:37:04.248Z,3.20
2023-12-30T05:39:05.742Z,3.40
2023-12-30T05:41:07.224Z,5.88
2023-12-30T05:43:08.781Z,5.07
2023-12-30T05:45:10.922Z,10.38
2023-12-30T05:47:12.424Z,12.52
2023-12-30T05:49:14.012Z,4.70
2023-12-30T05:51:15.724Z,14.77
2023-12-30T05:53:17.756Z,12.82
2023-12-30T05:55:19.289Z,16.35
2023-12-30T05:57:20.925Z,22.13
2023-12-30T05:59:22.463Z,25.88
2023-12-30T06:01:24.046Z,18.33
2023-12-30T06:03:25.724Z,7.28
2023-12-30T06:05:27.361Z,6.35
2023-12-30T06:07:28.886Z,12.32
2023-12-30T06:09:30.592Z,9.75
2023-12-30T06:11:32.100Z,9.40
2023-12-30T06:13:33.626Z,3.40
2023-12-30T06:15:35.267Z,4.30
2023-12-30T06:17:36.835Z,12.15
2023-12-30T06:19:38.367Z,15.65
2023-12-30T06:21:40.075Z,12.23
2023-12-30T06:23:41.564Z,7.30
2023-12-30T06:25:43.096Z,8.85
2023-12-30T06:27:44.753Z,10.18
2023-12-30T06:29:46.711Z,7.88
2023-12-30T06:31:48.842Z,9.40
2023-12-30T06:33:50.430Z,10.45
2023-12-30T06:35:51.984Z,8.90
2023-12-30T06:37:53.612Z,12.27
2023-12-30T06:39:55.134Z,5.93
2023-12-30T06:41:57.843Z,5.43
2023-12-30T06:43:59.581Z,4.03
2023-12-30T06:46:04.870Z,6.85
2023-12-30T06:48:07.073Z,6.28
2023-12-30T06:50:08.887Z,4.88
2023-12-30T06:52:10.436Z,4.85
2023-12-30T06:54:12.362Z,3.72
2023-12-30T06:56:13.983Z,12.45
2023-12-30T06:58:15.535Z,8.20
2023-12-30T07:00:17.386Z,6.18
2023-12-30T07:02:18.916Z,5.07
2023-12-30T07:04:20.525Z,6.68
2023-12-30T07:06:22.534Z,7.28
2023-12-30T07:08:24.039Z,5.55
2023-12-30T07:10:25.578Z,4.47
2023-12-30T07:12:27.169Z,9.93
2023-12-30T07:14:28.634Z,4.72
2023-12-30T07:16:30.099Z,5.60
2023-12-30T07:18:31.752Z,5.30
2023-12-30T07:20:33.251Z,7.38
2023-12-30T07:22:34.752Z,7.40
2023-12-30T07:24:36.274Z,5.20
2023-12-30T07:26:37.785Z,10.10
2023-12-30T07:28:39.295Z,10.15
2023-12-30T07:30:40.856Z,9.25
2023-12-30T07:32:42.645Z,19.50
2023-12-30T07:34:44.156Z,12.18
2023-12-30T07:36:45.957Z,7.05
2023-12-30T07:38:47.454Z,18.67
2023-12-30T07:40:48.925Z,11.05
2023-12-30T07:42:50.411Z,4.72
2023-12-30T07:44:53.507Z,5.90
2023-12-30T07:46:54.965Z,5.32
2023-12-30T07:48:56.985Z,4.65
2023-12-30T07:50:58.624Z,5.07
2023-12-30T07:53:00.626Z,3.28
2023-12-30T07:55:02.406Z,10.10
2023-12-30T07:57:04.365Z,6.38
2023-12-30T07:59:05.829Z,9.15
2023-12-30T08:01:07.425Z,7.55
2023-12-30T08:03:09.113Z,12.32
2023-12-30T08:05:10.583Z,14.77
2023-12-30T08:07:12.453Z,4.47
2023-12-30T08:09:14.055Z,10.98
2023-12-30T08:11:15.626Z,7.05
2023-12-30T08:13:17.126Z,10.93
2023-12-30T08:15:18.823Z,13.25
2023-12-30T08:17:20.395Z,5.00
2023-12-30T08:19:22.056Z,7.40
2023-12-30T08:21:23.752Z,9.15
2023-12-30T08:23:25.277Z,6.60
2023-12-30T08:25:26.837Z,7.45
2023-12-30T08:27:28.478Z,4.68
2023-12-30T08:29:29.940Z,8.02
2023-12-30T08:31:35.306Z,4.03
2023-12-30T08:33:36.952Z,6.57
2023-12-30T08:35:38.428Z,3.83
2023-12-30T08:37:40.124Z,6.50
2023-12-30T08:39:41.899Z,4.95
2023-12-30T08:41:43.353Z,5.78
2023-12-30T08:43:44.929Z,11.35
2023-12-30T08:45:46.632Z,6.25
2023-12-30T08:47:48.344Z,17.73
2023-12-30T08:49:49.887Z,10.95
2023-12-30T08:51:51.472Z,15.43
2023-12-30T08:53:52.951Z,8.00
2023-12-30T08:55:54.817Z,18.50
2023-12-30T08:57:56.541Z,10.25
2023-12-30T08:59:58.036Z,13.50
2023-12-30T09:01:59.564Z,19.75
2023-12-30T09:04:01.543Z,24.17
2023-12-30T09:06:03.506Z,13.27
2023-12-30T09:08:05.366Z,20.85
2023-12-30T09:10:07.437Z,13.95
2023-12-30T09:12:09.324Z,15.57
2023-12-30T09:14:11.348Z,19.80
2023-12-30T09:16:13.253Z,7.28
2023-12-30T09:18:15.451Z,13.75
2023-12-30T09:20:18.063Z,8.02
2023-12-30T09:22:19.914Z,9.95
2023-12-30T09:24:21.377Z,5.63
2023-12-30T09:26:23.034Z,9.20
2023-12-30T09:28:24.726Z,7.88
2023-12-30T09:30:26.313Z,8.07
2023-12-30T09:32:28.281Z,5.80
2023-12-30T09:34:38.810Z,7.53
2023-12-30T09:36:45.409Z,6.15
2023-12-30T09:38:47.253Z,9.45
2023-12-30T09:40:48.882Z,10.98
2023-12-30T09:42:51.639Z,9.63
2023-12-30T09:44:54.348Z,9.53
2023-12-30T09:46:57.238Z,7.53
2023-12-30T09:48:59.686Z,14.57
2023-12-30T09:51:01.376Z,9.25
2023-12-30T09:53:03.327Z,4.68
2023-12-30T09:55:05.548Z,4.72
2023-12-30T09:57:07.158Z,5.60
2023-12-30T09:59:09.146Z,24.33
2023-12-30T10:01:13.252Z,4.38
2023-12-30T10:03:15.983Z,7.40
2023-12-30T10:05:17.919Z,6.33
2023-12-30T10:07:20.386Z,5.43
2023-12-30T10:09:23.170Z,4.72
2023-12-30T10:11:25.098Z,6.00
2023-12-30T10:13:26.651Z,4.60
2023-12-30T10:15:28.166Z,5.20
2023-12-30T10:17:30.554Z,5.20
2023-12-30T10:19:32.246Z,4.20
2023-12-30T10:21:33.774Z,3.55
2023-12-30T10:23:36.096Z,4.45
2023-12-30T10:25:37.855Z,3.38
2023-12-30T10:27:39.576Z,3.25
2023-12-30T10:29:47.272Z,4.30
2023-12-30T10:32:02.543Z,3.92
2023-12-30T10:34:06.362Z,4.13
2023-12-30T10:36:08.284Z,4.57
2023-12-30T10:38:10.816Z,3.00
2023-12-30T10:40:12.455Z,3.08
2023-12-30T10:42:14.097Z,4.30
2023-12-30T10:44:15.759Z,6.18
2023-12-30T10:46:19.617Z,3.13
2023-12-30T10:48:22.232Z,3.75
2023-12-30T10:50:24.219Z,3.63
2023-12-30T10:52:25.968Z,4.97
2023-12-30T10:54:34.534Z,4.00
2023-12-30T10:56:43.950Z,4.60
2023-12-30T10:58:46.061Z,5.13
2023-12-30T11:00:57.686Z,6.00
2023-12-30T11:02:59.601Z,4.05
2023-12-30T11:05:01.926Z,4.80
2023-12-30T11:07:07.605Z,3.75
2023-12-30T11:09:09.937Z,5.53
2023-12-30T11:11:13.106Z,4.53
2023-12-30T11:13:14.667Z,4.45
2023-12-30T11:15:29.641Z,4.15
2023-12-30T11:17:37.623Z,4.13
2023-12-30T11:19:39.346Z,7.90
2023-12-30T11:21:43.306Z,6.88
2023-12-30T11:23:44.818Z,4.97
2023-12-30T11:25:47.803Z,4.13
2023-12-30T11:27:53.379Z,6.18
2023-12-30T11:29:54.816Z,6.25
2023-12-30T11:31:58.312Z,5.70
2023-12-30T11:34:00.591Z,4.50
2023-12-30T11:36:04.684Z,4.13
2023-12-30T11:38:07.502Z,4.38
2023-12-30T11:40:13.504Z,4.83
2023-12-30T11:42:15.064Z,5.20
2023-12-30T11:44:16.767Z,4.82
2023-12-30T11:46:18.709Z,5.68
2023-12-30T11:48:20.331Z,5.50
2023-12-30T11:50:21.979Z,4.05
2023-12-30T11:52:23.736Z,7.70
2023-12-30T11:54:25.861Z,4.22
2023-12-30T11:56:27.499Z,5.68
2023-12-30T11:58:32.166Z,5.50
2023-12-30T12:00:33.958Z,6.00
2023-12-30T12:02:35.707Z,5.15
2023-12-30T12:04:38.110Z,4.05
2023-12-30T12:06:39.762Z,5.90
2023-12-30T12:08:42.975Z,3.95
2023-12-30T12:10:45.900Z,7.72
2023-12-30T12:12:47.391Z,5.40
2023-12-30T12:14:50.473Z,7.03
2023-12-30T12:16:52.025Z,9.98
2023-12-30T12:18:54.608Z,4.95
2023-12-30T12:20:56.817Z,5.63
2023-12-30T12:22:58.299Z,4.63
2023-12-30T12:25:01.416Z,3.60
2023-12-30T12:27:03.008Z,3.78
2023-12-30T12:29:07.668Z,4.93
2023-12-30T12:31:09.363Z,5.13
2023-12-30T12:33:13.035Z,5.45
2023-12-30T12:35:14.600Z,6.95
2023-12-30T12:37:20.019Z,5.50
2023-12-30T12:39:21.677Z,4.78
2023-12-30T12:41:23.182Z,6.60
2023-12-30T12:43:24.689Z,6.38
2023-12-30T12:45:27.917Z,4.30
2023-12-30T12:47:30.823Z,5.43
2023-12-30T12:49:32.428Z,7.38
2023-12-30T12:51:33.984Z,13.18
2023-12-30T12:53:35.455Z,7.82
2023-12-30T12:55:36.992Z,6.32
2023-12-30T12:57:38.636Z,6.45
2023-12-30T12:59:40.129Z,3.30
2023-12-30T13:01:41.878Z,4.30
2023-12-30T13:03:43.625Z,4.25
2023-12-30T13:05:45.096Z,7.68
2023-12-30T13:07:46.910Z,5.07
2023-12-30T13:09:48.534Z,5.75
2023-12-30T13:11:49.987Z,7.30
2023-12-30T13:13:51.463Z,5.70
2023-12-30T13:15:53.070Z,5.45
2023-12-30T13:17:55.003Z,7.05
2023-12-30T13:19:56.620Z,8.52
2023-12-30T13:21:58.303Z,2.90
2023-12-30T13:23:59.908Z,4.82
2023-12-30T13:26:04.425Z,5.88
2023-12-30T13:28:06.588Z,7.20
2023-12-30T13:30:08.654Z,5.15
2023-12-30T13:32:10.424Z,6.57
2023-12-30T13:34:12.326Z,5.03
2023-12-30T13:36:13.999Z,6.35
2023-12-30T13:38:15.528Z,6.22
2023-12-30T13:40:17.125Z,8.57
2023-12-30T13:42:19.214Z,5.10
2023-12-30T13:44:20.679Z,10.35
2023-12-30T13:46:22.277Z,6.82
2023-12-30T13:48:23.924Z,6.00
2023-12-30T13:50:25.407Z,11.32
2023-12-30T13:52:27.274Z,7.78
2023-12-30T13:54:28.735Z,20.25
2023-12-30T13:56:30.475Z,5.90
2023-12-30T13:58:32.087Z,13.00
2023-12-30T14:00:33.572Z,8.10
2023-12-30T14:02:36.177Z,8.00
2023-12-30T14:04:38.010Z,6.97
2023-12-30T14:06:39.687Z,7.25
2023-12-30T14:08:41.489Z,6.32
2023-12-30T14:10:43.187Z,5.88
2023-12-30T14:12:44.664Z,8.50
2023-12-30T14:14:46.217Z,7.05
2023-12-30T14:16:47.816Z,7.82
2023-12-30T14:18:49.409Z,11.93
2023-12-30T14:20:50.907Z,9.02
2023-12-30T14:22:52.578Z,8.75
2023-12-30T14:24:54.057Z,10.10
2023-12-30T14:26:55.513Z,5.95
2023-12-30T14:28:57.152Z,7.78
2023-12-30T14:30:58.808Z,8.82
2023-12-30T14:33:01.129Z,5.82
2023-12-30T14:35:03.157Z,6.88
2023-12-30T14:37:04.898Z,8.88
2023-12-30T14:39:08.986Z,11.65
2023-12-30T14:41:11.803Z,8.15
2023-12-30T14:43:13.297Z,10.82
2023-12-30T14:45:14.808Z,6.15
2023-12-30T14:47:16.339Z,9.85
2023-12-30T14:49:17.921Z,17.63
2023-12-30T14:51:19.431Z,9.75
2023-12-30T14:53:21.044Z,5.60
2023-12-30T14:55:22.546Z,10.27
2023-12-30T14:57:24.123Z,7.20
2023-12-30T14:59:25.682Z,8.20
2023-12-30T15:01:27.570Z,8.75
2023-12-30T15:03:29.243Z,10.30
2023-12-30T15:05:30.890Z,10.80
2023-12-30T15:07:32.420Z,12.10
2023-12-30T15:09:34.029Z,12.48
2023-12-30T15:11:35.537Z,7.53
2023-12-30T15:13:38.129Z,10.23
2023-12-30T15:15:39.627Z,8.77
2023-12-30T15:17:41.303Z,10.68
2023-12-30T15:19:42.889Z,7.57
2023-12-30T15:21:44.421Z,11.90
2023-12-30T15:23:46.195Z,10.85
2023-12-30T15:25:47.713Z,11.27
2023-12-30T15:27:49.265Z,9.27
2023-12-30T15:29:50.856Z,8.98
2023-12-30T15:31:52.622Z,20.30
2023-12-30T15:33:54.229Z,16.75
2023-12-30T15:35:55.797Z,16.30
2023-12-30T15:37:58.317Z,15.18
2023-12-30T15:39:59.782Z,12.60
2023-12-30T15:42:02.030Z,11.18
2023-12-30T15:44:03.652Z,13.77
2023-12-30T15:46:05.241Z,12.13
2023-12-30T15:48:07.062Z,11.38
2023-12-30T15:50:08.890Z,11.77
2023-12-30T15:52:11.527Z,23.15
2023-12-30T15:54:13.392Z,12.23
2023-12-30T15:56:14.986Z,18.40
2023-12-30T15:58:16.495Z,11.15
2023-12-30T16:00:18.175Z,16.98
2023-12-30T16:02:19.753Z,10.60
2023-12-30T16:04:21.899Z,14.82
2023-12-30T16:06:23.539Z,13.75
2023-12-30T16:08:25.926Z,8.85
2023-12-30T16:10:27.635Z,12.68
2023-12-30T16:12:29.381Z,10.40
2023-12-30T16:14:30.839Z,10.05
2023-12-30T16:16:35.153Z,14.77
2023-12-30T16:18:36.794Z,8.90
2023-12-30T16:20:38.292Z,13.25
2023-12-30T16:22:41.678Z,11.02
2023-12-30T16:24:43.297Z,13.63
2023-12-30T16:26:44.769Z,24.92
2023-12-30T16:28:46.723Z,12.50
2023-12-30T16:30:48.426Z,13.60
2023-12-30T16:32:49.975Z,9.32
2023-12-30T16:34:51.476Z,11.55
2023-12-30T16:36:53.205Z,11.23
2023-12-30T16:38:54.792Z,9.55
2023-12-30T16:40:56.244Z,10.27
2023-12-30T16:42:57.962Z,11.55
2023-12-30T16:44:59.392Z,13.52
2023-12-30T16:47:00.819Z,10.50
2023-12-30T16:49:02.665Z,10.57
2023-12-30T16:51:04.417Z,12.43
2023-12-30T16:53:06.053Z,10.45
2023-12-30T16:55:08.122Z,12.35
2023-12-30T16:57:09.759Z,9.70
2023-12-30T16:59:11.184Z,8.02
2023-12-30T17:01:13.052Z,12.50
2023-12-30T17:03:15.227Z,11.32
2023-12-30T17:05:17.130Z,11.95
2023-12-30T17:07:18.736Z,14.82
2023-12-30T17:09:20.184Z,16.75
2023-12-30T17:11:21.629Z,110.28
2023-12-30T17:13:31.655Z,22.08
2023-12-30T17:15:40.545Z,13.13
2023-12-30T17:17:42.423Z,14.10
2023-12-30T17:19:44.023Z,13.02
2023-12-30T17:21:45.524Z,13.82
2023-12-30T17:23:47.098Z,10.20
2023-12-30T17:25:48.609Z,10.90
2023-12-30T17:27:50.098Z,15.40
2023-12-30T17:29:51.744Z,13.65
2023-12-30T17:31:53.762Z,14.90
2023-12-30T17:33:55.362Z,12.25
2023-12-30T17:35:56.924Z,12.90
2023-12-30T17:37:58.494Z,11.48
2023-12-30T17:40:00.091Z,11.88
2023-12-30T17:42:01.774Z,11.18
2023-12-30T17:44:05.359Z,14.10
2023-12-30T17:46:07.194Z,10.27
2023-12-30T17:48:08.944Z,14.77
2023-12-30T17:50:10.893Z,10.75
2023-12-30T17:52:12.382Z,11.50
2023-12-30T17:54:13.959Z,15.50
2023-12-30T17:56:15.782Z,9.18
2023-12-30T17:58:17.567Z,13.98
2023-12-30T18:00:19.315Z,14.35
2023-12-30T18:02:20.853Z,13.60
2023-12-30T18:04:22.388Z,11.48
2023-12-30T18:06:24.359Z,12.77
2023-12-30T18:08:25.845Z,12.93
2023-12-30T18:10:27.423Z,10.35
2023-12-30T18:12:29.079Z,11.70
2023-12-30T18:14:30.638Z,13.10
2023-12-30T18:16:32.150Z,11.93
2023-12-30T18:18:33.937Z,14.55
2023-12-30T18:20:35.702Z,15.35
2023-12-30T18:22:37.378Z,31.08
2023-12-30T18:24:39.092Z,12.25
2023-12-30T18:26:40.673Z,11.27
2023-12-30T18:28:42.221Z,13.35
2023-12-30T18:30:43.953Z,15.40
2023-12-30T18:32:45.468Z,19.48
2023-12-30T18:34:47.190Z,21.13
2023-12-30T18:36:48.800Z,13.68
2023-12-30T18:38:50.239Z,21.65
2023-12-30T18:40:51.756Z,16.98
2023-12-30T18:42:53.390Z,16.98
2023-12-30T18:44:54.848Z,14.32
2023-12-30T18:46:56.298Z,16.25
2023-12-30T18:48:57.916Z,10.70
2023-12-30T18:50:59.481Z,17.13
2023-12-30T18:53:01.116Z,15.73
2023-12-30T18:55:02.786Z,10.45
2023-12-30T18:57:04.408Z,15.43
2023-12-30T18:59:05.860Z,13.10
2023-12-30T19:01:07.671Z,15.50
2023-12-30T19:03:09.179Z,17.92
2023-12-30T19:05:11.996Z,11.60
2023-12-30T19:07:13.751Z,20.50
2023-12-30T19:09:15.260Z,16.05
2023-12-30T19:11:16.782Z,15.00
2023-12-30T19:13:18.522Z,10.90
2023-12-30T19:15:19.973Z,19.95
2023-12-30T19:17:21.572Z,16.80
2023-12-30T19:19:23.352Z,17.75
2023-12-30T19:21:24.873Z,10.48
2023-12-30T19:23:26.352Z,14.27
2023-12-30T19:25:27.937Z,12.23
2023-12-30T19:27:29.426Z,9.82
2023-12-30T19:29:30.876Z,12.57
2023-12-30T19:31:32.505Z,12.98
2023-12-30T19:33:34.049Z,11.60
2023-12-30T19:35:36.027Z,13.70
2023-12-30T19:37:38.248Z,12.32
2023-12-30T19:39:39.745Z,15.00
2023-12-30T19:41:41.179Z,22.80
2023-12-30T19:43:42.857Z,14.15
2023-12-30T19:45:44.500Z,15.75
2023-12-30T19:47:46.113Z,9.93
2023-12-30T19:49:48.247Z,27.27
2023-12-30T19:51:49.823Z,42.30
2023-12-30T19:53:51.263Z,26.13
2023-12-30T19:55:52.839Z,40.42
2023-12-30T19:57:54.296Z,32.15
2023-12-30T19:59:55.733Z,13.38
2023-12-30T20:01:57.252Z,28.42
2023-12-30T20:03:58.769Z,11.57
2023-12-30T20:06:00.372Z,12.80
2023-12-30T20:08:02.165Z,10.15
2023-12-30T20:10:04.207Z,10.93
2023-12-30T20:12:06.194Z,17.38
2023-12-30T20:14:08.138Z,14.10
2023-12-30T20:16:09.649Z,15.73
2023-12-30T20:18:11.285Z,10.93
2023-12-30T20:20:13.060Z,10.80
2023-12-30T20:22:14.537Z,8.82
2023-12-30T20:24:22.420Z,10.80
2023-12-30T20:26:23.860Z,13.55
2023-12-30T20:28:25.355Z,12.27
2023-12-30T20:30:26.840Z,15.38
2023-12-30T20:32:28.407Z,19.25
2023-12-30T20:34:29.903Z,19.88
2023-12-30T20:36:31.405Z,12.35
2023-12-30T20:38:33.030Z,27.63
2023-12-30T20:40:34.556Z,17.70
2023-12-30T20:42:36.073Z,16.58
2023-12-30T20:44:38.357Z,14.98
2023-12-30T20:46:43.533Z,15.60
2023-12-30T20:48:45.039Z,9.38
2023-12-30T20:50:46.635Z,14.27
2023-12-30T20:52:48.220Z,10.00
2023-12-30T20:54:49.941Z,10.02
2023-12-30T20:56:51.489Z,14.00
2023-12-30T20:58:53.009Z,11.77
2023-12-30T21:00:54.493Z,16.90
2023-12-30T21:02:56.053Z,19.00
2023-12-30T21:04:57.563Z,7.68
2023-12-30T21:06:59.060Z,5.35
2023-12-30T21:09:00.737Z,7.10
2023-12-30T21:11:02.212Z,7.00
2023-12-30T21:13:04.406Z,5.13
2023-12-30T21:15:06.505Z,6.05
2023-12-30T21:17:07.958Z,9.30
2023-12-30T21:19:09.418Z,8.00
2023-12-30T21:21:10.990Z,8.05
2023-12-30T21:23:12.498Z,12.75
2023-12-30T21:25:19.587Z,14.95
2023-12-30T21:27:28.129Z,17.10
2023-12-30T21:29:30.582Z,13.57
2023-12-30T21:31:32.111Z,13.68
2023-12-30T21:33:34.986Z,13.48
2023-12-30T21:35:36.542Z,13.57
2023-12-30T21:37:42.015Z,13.30
2023-12-30T21:39:49.115Z,11.07
2023-12-30T21:41:50.567Z,11.82
2023-12-30T21:43:52.202Z,12.68
2023-12-30T21:45:53.756Z,11.82
2023-12-30T21:47:55.281Z,10.93
2023-12-30T21:49:57.078Z,14.52
2023-12-30T21:51:58.692Z,10.00
2023-12-30T21:54:00.203Z,18.67
2023-12-30T21:56:01.673Z,60.08
2023-12-30T21:58:04.613Z,57.03
2023-12-30T22:00:06.757Z,87.00
2023-12-30T22:02:08.361Z,48.08
2023-12-30T22:04:09.936Z,84.07
2023-12-30T22:06:11.741Z,130.35
2023-12-30T22:08:13.404Z,110.00
2023-12-30T22:10:15.813Z,55.47
2023-12-30T22:12:17.354Z,43.95
2023-12-30T22:14:18.858Z,82.65
2023-12-30T22:16:20.514Z,102.32
2023-12-30T22:18:22.026Z,87.22
2023-12-30T22:20:23.572Z,86.97
2023-12-30T22:22:25.258Z,59.40
2023-12-30T22:24:26.758Z,19.55
2023-12-30T22:26:28.411Z,17.33
2023-12-30T22:28:29.890Z,15.98
2023-12-30T22:30:31.476Z,16.70
2023-12-30T22:32:33.217Z,13.20
2023-12-30T22:34:35.000Z,8.73
2023-12-30T22:36:36.518Z,7.82
2023-12-30T22:38:38.978Z,7.43
2023-12-30T22:40:40.585Z,11.73
2023-12-30T22:42:42.209Z,8.30
2023-12-30T22:44:43.856Z,8.93
2023-12-30T22:46:45.944Z,13.95
2023-12-30T22:48:47.774Z,29.60
2023-12-30T22:50:50.307Z,28.90
2023-12-30T22:52:51.824Z,23.92
2023-12-30T22:54:53.272Z,23.58
2023-12-30T22:56:54.921Z,29.40
2023-12-30T22:58:56.370Z,82.45
2023-12-30T23:00:57.909Z,45.65
2023-12-30T23:02:59.876Z,32.03
2023-12-30T23:05:01.492Z,80.43
2023-12-30T23:07:03.010Z,79.22
2023-12-30T23:09:04.732Z,90.13
2023-12-30T23:11:06.320Z,53.97
2023-12-30T23:13:07.966Z,57.40
2023-12-30T23:15:09.819Z,59.78
2023-12-30T23:17:11.333Z,67.07
2023-12-30T23:19:12.814Z,55.67
2023-12-30T23:21:14.457Z,36.35
2023-12-30T23:23:15.975Z,33.38
2023-12-30T23:25:20.820Z,39.38
2023-12-30T23:27:22.397Z,39.20
2023-12-30T23:29:23.915Z,38.42
2023-12-30T23:31:25.473Z,39.28
2023-12-30T23:33:27.031Z,42.25
2023-12-30T23:35:31.741Z,39.05
2023-12-30T23:37:33.557Z,25.00
2023-12-30T23:39:35.437Z,38.25
2023-12-30T23:41:36.944Z,39.33
2023-12-30T23:43:38.498Z,66.53
2023-12-30T23:45:39.965Z,115.72
2023-12-30T23:47:41.496Z,80.75
2023-12-30T23:49:43.106Z,59.28
2023-12-30T23:51:44.716Z,45.97
2023-12-30T23:53:46.308Z,54.22
2023-12-30T23:55:48.041Z,50.17
2023-12-30T23:57:49.931Z,104.28
2023-12-30T23:59:51.624Z,128.63
